Time;durP1;ratioP1;P1;durP2;ratioP2;P2;SDS_P1;SDS_P2;PMS_P1;PMS_P2;Temp;Humidity;BMP_temperature;BMP_pressure;BME280_temperature;BME280_humidity;BME280_pressure;Samples;Min_cycle;Max_cycle;Signal;HPM_P1;HPM_P2
2021/11/10 00:02:07;;;;;;;;;17.00;14.00;;;;;19.89;49.31;99956.03;4805343;29;102901;-85
2021/11/10 00:04:34;;;;;;;;;18.67;15.67;;;;;19.89;49.54;99958.78;4821377;28;109051;-85
2021/11/10 00:07:01;;;;;;;;;17.67;16.00;;;;;19.89;49.40;99969.75;4808001;29;102778;-85
2021/11/10 00:09:28;;;;;;;;;16.33;15.00;;;;;19.89;49.49;99967.03;4801517;28;102487;-85
2021/11/10 00:11:56;;;;;;;;;17.00;14.67;;;;;19.89;49.42;99965.13;4818185;29;102690;-85
2021/11/10 00:14:23;;;;;;;;;17.00;16.00;;;;;19.87;49.35;99959.00;4824606;28;104167;-85
2021/11/10 00:16:52;;;;;;;;;19.33;17.33;;;;;19.88;49.39;99962.59;4816222;28;102701;-84
2021/11/10 00:19:19;;;;;;;;;17.00;15.00;;;;;19.88;49.24;99965.34;4828196;29;102457;-85
2021/11/10 00:21:46;;;;;;;;;16.33;15.67;;;;;19.87;49.34;99960.91;4806686;29;102544;-86
2021/11/10 00:24:13;;;;;;;;;22.33;17.67;;;;;19.85;48.80;99950.19;4806737;29;104062;-85
2021/11/10 00:26:40;;;;;;;;;22.67;18.00;;;;;19.86;48.95;99949.09;4814683;29;102532;-89
2021/11/10 00:29:07;;;;;;;;;17.00;15.00;;;;;19.85;48.97;99952.91;4813288;29;103217;-89
2021/11/10 00:31:34;;;;;;;;;22.00;19.50;;;;;19.85;48.82;99943.84;4781455;29;103167;-89
2021/11/10 00:34:01;;;;;;;;;20.33;18.00;;;;;19.85;49.09;99947.44;4826332;28;104072;-89
2021/11/10 00:36:28;;;;;;;;;16.67;15.67;;;;;19.85;48.91;99952.91;4826527;28;105213;-88
2021/11/10 00:38:57;;;;;;;;;18.00;17.00;;;;;19.85;49.14;99949.34;4820137;28;102528;-87
2021/11/10 00:41:25;;;;;;;;;19.00;16.33;;;;;19.85;48.78;99946.59;4828256;28;102402;-88
2021/11/10 00:43:52;;;;;;;;;21.75;18.75;;;;;19.85;48.86;99952.06;4807812;29;103659;-88
2021/11/10 00:46:18;;;;;;;;;20.00;17.00;;;;;19.84;48.65;99939.41;4802580;28;105907;-87
2021/11/10 00:48:45;;;;;;;;;18.33;15.67;;;;;19.83;48.66;99937.72;4830141;29;102389;-86
2021/11/10 00:51:12;;;;;;;;;17.00;16.00;;;;;19.82;48.72;99947.88;4826955;28;102230;-88
2021/11/10 00:53:39;;;;;;;;;19.00;16.00;;;;;19.82;48.67;99941.53;4821178;28;104005;-87
2021/11/10 00:56:06;;;;;;;;;18.67;17.33;;;;;19.81;48.64;99935.19;4825305;28;104364;-88
2021/11/10 00:58:33;;;;;;;;;22.00;16.33;;;;;19.80;48.73;99944.53;4820422;28;101998;-89
2021/11/10 01:01:00;;;;;;;;;18.33;17.00;;;;;19.80;48.59;99943.69;4814527;28;103148;-85
2021/11/10 01:03:27;;;;;;;;;19.00;17.00;;;;;19.78;48.26;99946.66;4789230;29;104089;-85
2021/11/10 01:05:56;;;;;;;;;19.00;18.00;;;;;19.79;48.65;99944.75;4806448;28;102251;-84
2021/11/10 01:08:24;;;;;;;;;18.67;16.33;;;;;19.78;48.51;99951.28;4797175;29;104850;-84
2021/11/10 01:10:52;;;;;;;;;18.67;17.67;;;;;19.77;48.08;99947.72;4785588;29;102378;-85
2021/11/10 01:13:20;;;;;;;;;19.33;16.00;;;;;19.77;48.33;99946.91;4784442;29;104365;-85
2021/11/10 01:15:47;;;;;;;;;24.00;18.00;;;;;19.76;48.29;99964.41;4780858;29;102261;-85
2021/11/10 01:18:14;;;;;;;;;21.33;17.67;;;;;19.75;48.51;99941.63;4786587;29;102584;-86
2021/11/10 01:20:41;;;;;;;;;20.00;16.00;;;;;19.75;48.29;99940.78;4770922;29;102601;-86
2021/11/10 01:23:09;;;;;;;;;16.25;15.75;;;;;19.74;48.11;99939.09;4792279;29;104092;-85
2021/11/10 01:25:37;;;;;;;;;16.67;16.00;;;;;19.73;48.16;99937.41;4800901;29;102451;-85
2021/11/10 01:28:06;;;;;;;;;17.67;17.00;;;;;19.72;48.16;99931.09;4793166;29;102161;-85
2021/11/10 01:30:33;;;;;;;;;19.00;16.00;;;;;19.72;48.11;99939.34;4780140;29;106725;-85
2021/11/10 01:33:00;;;;;;;;;19.33;18.67;;;;;19.70;48.16;99946.09;4797924;29;104123;-85
2021/11/10 01:35:29;;;;;;;;;19.50;18.25;;;;;19.68;48.25;99935.34;4789901;29;102229;-86
2021/11/10 01:37:56;;;;;;;;;17.33;15.33;;;;;19.69;48.10;99936.19;4790516;29;111920;-85
2021/11/10 01:40:23;;;;;;;;;18.00;16.67;;;;;19.67;48.14;99936.44;4778424;29;102291;-85
2021/11/10 01:42:51;;;;;;;;;22.50;17.75;;;;;19.67;48.27;99932.84;4797135;29;104127;-85
2021/11/10 01:45:18;;;;;;;;;22.25;18.00;;;;;19.65;47.98;99938.56;4799478;29;102324;-85
2021/11/10 01:47:45;;;;;;;;;18.25;16.75;;;;;19.65;48.29;99934.97;4779558;29;103980;-86
2021/11/10 01:50:14;;;;;;;;;17.75;16.75;;;;;19.65;48.16;99937.72;4787824;29;102727;-86
2021/11/10 01:52:41;;;;;;;;;22.00;18.75;;;;;19.64;47.87;99925.06;4805355;29;108843;-85
2021/11/10 01:55:09;;;;;;;;;19.25;16.50;;;;;19.63;48.03;99931.63;4783819;29;104644;-85
2021/11/10 01:57:37;;;;;;;;;18.50;17.50;;;;;19.62;47.99;99918.97;4793305;29;102295;-85
2021/11/10 02:00:14;;;;;;;;;20.75;20.00;;;;;19.62;48.02;99929.94;4803284;29;102717;-85
2021/11/10 02:02:41;;;;;;;;;17.75;16.00;;;;;19.59;47.87;99921.09;4782125;29;108821;-85
2021/11/10 02:05:13;;;;;;;;;20.75;17.00;;;;;19.59;47.89;99926.56;4784595;29;102579;-85
2021/11/10 02:07:40;;;;;;;;;19.00;18.00;;;;;19.58;48.05;99919.44;4791934;29;102747;-85
2021/11/10 02:10:09;;;;;;;;;19.33;16.00;;;;;19.56;47.72;99923.44;4804474;28;102677;-85
2021/11/10 02:12:36;;;;;;;;;20.33;16.33;;;;;19.56;48.13;99927.03;4816075;29;104069;-85
2021/11/10 02:15:07;;;;;;;;;16.33;15.33;;;;;19.56;47.72;99928.94;4823901;28;104859;-85
2021/11/10 02:17:35;;;;;;;;;19.75;17.75;;;;;19.54;47.74;99918.19;4786312;29;102846;-85
2021/11/10 02:20:07;;;;;;;;;18.00;17.00;;;;;19.53;47.87;99922.00;4787665;28;102346;-85
2021/11/10 02:22:35;;;;;;;;;19.00;15.00;;;;;19.52;47.80;99909.34;4800230;29;104070;-85
2021/11/10 02:25:03;;;;;;;;;15.00;13.33;;;;;19.51;47.80;99907.66;4815677;28;102296;-85
2021/11/10 02:27:34;;;;;;;;;21.67;17.00;;;;;19.50;47.64;99911.47;4789263;28;105513;-85
2021/11/10 02:30:06;;;;;;;;;21.00;16.67;;;;;19.51;47.95;99913.16;4811146;28;102298;-85
2021/11/10 02:32:34;;;;;;;;;18.00;16.00;;;;;19.49;47.81;99904.34;4794445;29;104502;-85
2021/11/10 02:35:05;;;;;;;;;20.25;18.50;;;;;19.49;47.83;99895.25;4788652;29;102086;-85
2021/11/10 02:37:32;;;;;;;;;17.25;16.25;;;;;19.48;47.76;99899.06;4817188;28;102986;-85
2021/11/10 02:39:59;;;;;;;;;18.50;17.75;;;;;19.46;47.76;99890.22;4825108;28;102838;-89
2021/11/10 02:42:26;;;;;;;;;20.25;19.00;;;;;19.45;47.71;99883.88;4813224;28;106725;-89
2021/11/10 02:44:53;;;;;;;;;20.00;18.00;;;;;19.44;47.73;99884.97;4787336;28;102054;-89
2021/11/10 02:47:20;;;;;;;;;19.75;18.00;;;;;19.43;47.66;99877.81;4795375;28;102171;-89
2021/11/10 02:49:47;;;;;;;;;17.25;16.00;;;;;19.40;47.51;99872.75;4803520;28;102176;-89
2021/11/10 02:52:18;;;;;;;;;23.00;17.00;;;;;19.41;47.62;99873.56;4797942;28;104099;-89
2021/11/10 02:54:48;;;;;;;;;21.00;17.75;;;;;19.39;47.64;99868.31;4808594;29;104509;-87
2021/11/10 02:57:15;;;;;;;;;16.75;15.75;;;;;19.39;47.60;99876.53;4820890;28;102533;-90
2021/11/10 02:59:42;;;;;;;;;18.75;15.75;;;;;19.38;47.47;99865.78;4822232;28;103545;-89
2021/11/10 03:02:09;;;;;;;;;19.00;17.00;;;;;19.36;47.52;99868.75;4819019;29;106854;-90
2021/11/10 03:04:44;;;;;;;;;16.75;15.50;;;;;19.36;47.53;99859.72;4818983;28;102499;-90
2021/11/10 03:07:11;;;;;;;;;22.00;18.00;;;;;19.34;47.64;99846.22;4811577;29;102576;-89
2021/11/10 03:09:38;;;;;;;;;23.50;17.75;;;;;19.35;47.58;99847.06;4790726;29;102641;-85
2021/11/10 03:12:07;;;;;;;;;17.50;16.75;;;;;19.33;47.47;99838.19;4803821;29;104707;-85
2021/11/10 03:14:35;;;;;;;;;20.00;18.25;;;;;19.32;47.77;99848.31;4808731;29;104822;-85
2021/11/10 03:17:07;;;;;;;;;20.00;15.33;;;;;19.31;47.55;99834.88;4797129;29;102736;-84
2021/11/10 03:19:34;;;;;;;;;20.75;17.00;;;;;19.29;47.38;99835.09;4795348;29;102195;-85
2021/11/10 03:22:03;;;;;;;;;21.75;19.50;;;;;19.29;47.49;99826.84;4809472;29;104161;-85
2021/11/10 03:24:30;;;;;;;;;19.50;17.75;;;;;19.27;47.43;99823.53;4775208;29;102572;-85
2021/11/10 03:26:57;;;;;;;;;18.67;16.67;;;;;19.27;47.74;99823.53;4802470;29;102211;-85
2021/11/10 03:29:24;;;;;;;;;18.67;17.67;;;;;19.26;47.56;99821.00;4806101;29;102206;-85
2021/11/10 03:31:51;;;;;;;;;18.50;15.25;;;;;19.25;47.50;99824.78;4806362;29;104100;-85
2021/11/10 03:34:20;;;;;;;;;19.00;16.75;;;;;19.24;47.36;99817.63;4785463;29;103633;-86
2021/11/10 03:36:47;;;;;;;;;19.67;15.67;;;;;19.22;47.52;99819.78;4780292;29;102095;-87
2021/11/10 03:39:15;;;;;;;;;20.00;17.50;;;;;19.22;47.54;99826.09;4792684;29;102578;-85
2021/11/10 03:41:42;;;;;;;;;19.00;16.00;;;;;19.21;47.50;99807.97;4800250;29;109117;-84
2021/11/10 03:44:09;;;;;;;;;16.25;15.75;;;;;19.20;47.74;99800.78;4769974;29;103493;-84
2021/11/10 03:46:37;;;;;;;;;18.75;17.25;;;;;19.19;47.24;99801.84;4806749;29;102470;-85
2021/11/10 03:49:06;;;;;;;;;17.67;17.33;;;;;19.18;47.35;99813.91;4803185;29;102490;-84
2021/11/10 03:51:33;;;;;;;;;22.67;19.00;;;;;19.17;47.15;99813.06;4789203;29;104139;-85
2021/11/10 03:54:01;;;;;;;;;16.25;15.75;;;;;19.16;47.46;99821.50;4778966;29;102422;-85
2021/11/10 03:56:33;;;;;;;;;16.25;15.75;;;;;19.13;47.46;99811.84;4786879;29;103038;-85
2021/11/10 03:59:00;;;;;;;;;19.25;16.75;;;;;19.14;47.62;99812.66;4803085;29;102699;-85
2021/11/10 04:01:30;;;;;;;;;18.75;17.00;;;;;19.12;47.25;99815.66;4775440;29;103702;-85
2021/11/10 04:03:57;;;;;;;;;23.25;18.75;;;;;19.11;47.41;99815.88;4794021;29;103987;-85
2021/11/10 04:06:24;;;;;;;;;17.00;15.25;;;;;19.11;47.59;99824.09;4801185;29;102304;-85
2021/11/10 04:08:51;;;;;;;;;17.00;16.75;;;;;19.10;47.45;99814.19;4802691;29;102312;-85
2021/11/10 04:11:20;;;;;;;;;18.75;16.00;;;;;19.09;47.43;99820.75;4801988;29;104546;-85
2021/11/10 04:13:48;;;;;;;;;18.00;16.00;;;;;19.07;47.56;99817.38;4789568;29;104679;-86
2021/11/10 04:16:20;;;;;;;;;19.00;18.25;;;;;19.07;47.33;99817.38;4792674;29;105697;-85
2021/11/10 04:18:51;;;;;;;;;18.25;16.75;;;;;19.06;47.10;99818.44;4803078;29;102296;-85
2021/11/10 04:21:19;;;;;;;;;17.25;16.75;;;;;19.05;47.44;99814.03;4783382;29;108975;-85
2021/11/10 04:23:48;;;;;;;;;16.50;16.00;;;;;19.05;47.61;99819.50;4810289;29;103733;-85
2021/11/10 04:26:15;;;;;;;;;19.50;16.75;;;;;19.03;47.40;99822.50;4787415;29;102536;-85
2021/11/10 04:28:42;;;;;;;;;17.25;16.00;;;;;19.02;47.22;99819.97;4800963;29;102762;-85
2021/11/10 04:31:09;;;;;;;;;16.50;15.00;;;;;19.01;46.85;99812.78;4800587;29;104138;-84
2021/11/10 04:33:36;;;;;;;;;20.50;16.00;;;;;19.00;47.13;99811.16;4790564;29;102574;-85
2021/11/10 04:36:04;;;;;;;;;18.25;17.00;;;;;18.99;47.49;99818.53;4790535;29;105976;-85
2021/11/10 04:38:32;;;;;;;;;20.00;17.50;;;;;18.99;47.45;99814.94;4806108;29;102138;-85
2021/11/10 04:40:59;;;;;;;;;18.75;15.25;;;;;18.97;47.27;99812.41;4775263;29;104150;-85
2021/11/10 04:43:26;;;;;;;;;21.25;19.00;;;;;18.96;47.53;99808.00;4804025;29;102630;-85
2021/11/10 04:46:39;;;;;;;;;18.25;15.75;;;;;18.97;47.65;99806.09;4803496;29;102454;-85
2021/11/10 04:48:40;;;;;;;;;19.25;16.50;;;;;18.96;47.45;99818.13;4790009;29;105452;-85
2021/11/10 04:51:08;;;;;;;;;20.00;18.75;;;;;18.96;47.30;99820.84;4800160;29;104075;-85
2021/11/10 04:53:37;;;;;;;;;20.75;16.25;;;;;18.96;47.61;99812.63;4807914;29;102213;-85
2021/11/10 04:56:04;;;;;;;;;17.25;15.25;;;;;18.96;47.15;99812.63;4780025;29;102223;-85
2021/11/10 04:58:31;;;;;;;;;19.00;15.50;;;;;18.93;47.11;99804.88;4801432;29;102846;-85
2021/11/10 05:00:58;;;;;;;;;18.75;17.00;;;;;18.93;47.45;99800.22;4788884;29;104249;-85
2021/11/10 05:03:26;;;;;;;;;19.75;17.00;;;;;18.93;47.30;99804.88;4787507;29;103104;-85
2021/11/10 05:05:53;;;;;;;;;18.75;17.00;;;;;18.91;46.89;99801.53;4804223;29;102819;-85
2021/11/10 05:08:20;;;;;;;;;25.50;19.00;;;;;18.91;47.25;99796.06;4825319;28;102452;-89
2021/11/10 05:10:47;;;;;;;;;17.00;16.00;;;;;18.89;47.09;99792.69;4815131;29;104015;-89
2021/11/10 05:13:14;;;;;;;;;15.00;15.00;;;;;18.89;47.72;99804.50;4818531;28;102510;-89
2021/11/10 05:15:42;;;;;;;;;18.75;16.75;;;;;18.88;47.55;99801.97;4807100;28;102353;-89
2021/11/10 05:18:09;;;;;;;;;16.25;16.00;;;;;18.87;47.72;99797.53;4800293;29;105205;-89
2021/11/10 05:20:36;;;;;;;;;18.25;17.50;;;;;18.87;47.85;99801.13;4788076;28;104480;-82
2021/11/10 05:23:03;;;;;;;;;15.00;13.25;;;;;18.85;47.39;99806.00;4792726;29;102287;-82
2021/11/10 05:25:30;;;;;;;;;22.25;18.75;;;;;18.86;47.44;99801.38;4805168;28;102119;-81
2021/11/10 05:27:57;;;;;;;;;21.50;20.00;;;;;18.78;47.53;99810.69;4815908;28;102625;-82
2021/11/10 05:30:24;;;;;;;;;22.75;19.75;;;;;18.78;48.06;99812.63;4794937;28;105577;-81
2021/11/10 05:32:51;;;;;;;;;20.00;18.50;;;;;18.77;48.07;99811.78;4806923;29;102637;-81
2021/11/10 05:35:18;;;;;;;;;22.50;18.75;;;;;18.71;47.59;99801.72;4807301;29;102749;-82
2021/11/10 05:37:51;;;;;;;;;21.25;17.00;;;;;18.67;48.21;99804.06;4770479;29;102169;-82
2021/11/10 05:40:18;;;;;;;;;19.25;15.75;;;;;18.61;48.06;99802.22;4788976;29;108749;-82
2021/11/10 05:42:45;;;;;;;;;22.50;17.50;;;;;18.59;47.59;99809.81;4793303;29;102618;-82
2021/11/10 05:45:12;;;;;;;;;18.50;18.00;;;;;18.55;47.97;99807.75;4796931;29;104419;-81
2021/11/10 05:47:39;;;;;;;;;18.50;17.00;;;;;18.53;47.92;99805.22;4829244;29;104050;-82
2021/11/10 05:50:07;;;;;;;;;16.75;14.00;;;;;18.51;47.90;99806.47;4803563;29;105047;-82
2021/11/10 05:52:34;;;;;;;;;18.00;17.25;;;;;18.49;47.83;99798.50;4816092;28;102041;-82
2021/11/10 05:55:03;;;;;;;;;19.25;17.00;;;;;18.46;48.06;99792.63;4827305;28;102516;-82
2021/11/10 05:57:30;;;;;;;;;20.75;18.00;;;;;18.43;48.24;99793.06;4801646;29;102224;-82
2021/11/10 05:59:57;;;;;;;;;16.25;16.25;;;;;18.40;48.28;99794.34;4816107;28;104400;-82
2021/11/10 06:02:25;;;;;;;;;20.75;16.00;;;;;18.38;48.22;99799.19;4821291;29;102563;-82
2021/11/10 06:04:52;;;;;;;;;16.75;15.75;;;;;18.36;48.36;99792.28;4819002;29;103000;-82
2021/11/10 06:07:19;;;;;;;;;21.50;16.25;;;;;18.35;47.97;99796.06;4816365;29;102245;-85
2021/11/10 06:09:46;;;;;;;;;17.50;15.50;;;;;18.32;47.95;99797.38;4828376;29;103433;-86
2021/11/10 06:12:14;;;;;;;;;20.25;18.50;;;;;18.31;47.82;99805.78;4820659;29;102619;-81
2021/11/10 06:14:41;;;;;;;;;22.50;20.75;;;;;18.29;47.99;99803.25;4812606;28;102772;-81
2021/11/10 06:17:08;;;;;;;;;17.25;17.25;;;;;18.26;48.61;99799.09;4808029;29;103009;-82
2021/11/10 06:19:35;;;;;;;;;17.75;16.50;;;;;18.25;48.33;99799.28;4826562;29;104489;-82
2021/11/10 06:22:03;;;;;;;;;17.50;16.00;;;;;18.23;48.50;99809.66;4813053;28;102148;-82
2021/11/10 06:24:30;;;;;;;;;15.50;15.25;;;;;18.22;48.63;99813.44;4819230;29;102959;-82
2021/11/10 06:26:57;;;;;;;;;22.25;17.50;;;;;18.19;48.02;99800.19;4823112;29;102661;-81
2021/11/10 06:29:24;;;;;;;;;22.75;21.00;;;;;18.17;48.18;99816.84;4801520;29;104943;-81
2021/11/10 06:31:51;;;;;;;;;17.50;16.25;;;;;18.16;48.24;99819.78;4820783;29;102480;-82
2021/11/10 06:34:18;;;;;;;;;19.75;17.00;;;;;18.15;48.62;99821.69;4830906;29;102312;-82
2021/11/10 06:36:45;;;;;;;;;19.50;18.50;;;;;18.14;48.39;99830.97;4824358;29;102281;-82
2021/11/10 06:39:12;;;;;;;;;21.50;17.50;;;;;18.12;48.29;99824.03;4801588;29;104058;-82
2021/11/10 06:41:40;;;;;;;;;19.75;18.00;;;;;18.10;48.63;99821.50;4821810;29;103117;-82
2021/11/10 06:44:07;;;;;;;;;20.50;19.00;;;;;18.10;48.52;99824.22;4798703;29;102689;-82
2021/11/10 06:46:34;;;;;;;;;23.75;19.00;;;;;18.10;48.56;99828.91;4819345;28;102169;-82
2021/11/10 06:49:04;;;;;;;;;20.25;18.00;;;;;18.06;48.05;99824.88;4806060;29;104144;-82
2021/11/10 06:51:32;;;;;;;;;20.00;17.00;;;;;18.05;48.32;99828.72;4799192;29;102423;-82
2021/11/10 06:53:58;;;;;;;;;21.50;19.50;;;;;18.04;48.77;99821.56;4806158;28;102303;-82
2021/11/10 06:56:25;;;;;;;;;22.00;20.00;;;;;18.03;47.94;99814.38;4808396;29;103576;-82
2021/11/10 06:58:52;;;;;;;;;19.00;17.75;;;;;18.01;48.77;99824.75;4811407;28;104020;-82
2021/11/10 07:01:19;;;;;;;;;23.50;22.00;;;;;18.01;47.88;99813.78;4807820;29;102676;-82
2021/11/10 07:03:47;;;;;;;;;21.50;19.50;;;;;18.02;48.31;99812.72;4778844;29;102771;-85
2021/11/10 07:06:14;;;;;;;;;21.75;19.75;;;;;18.00;48.39;99807.47;4814951;28;102550;-85
2021/11/10 07:08:41;;;;;;;;;21.00;18.25;;;;;17.99;48.53;99807.69;4810769;28;104342;-86
2021/11/10 07:11:09;;;;;;;;;19.75;15.50;;;;;17.97;48.42;99801.56;4815628;29;102561;-85
2021/11/10 07:13:36;;;;;;;;;22.00;17.00;;;;;17.96;47.97;99799.91;4805279;28;102526;-85
2021/11/10 07:16:04;;;;;;;;;22.75;19.75;;;;;17.94;47.85;99804.75;4809729;29;102223;-85
2021/11/10 07:18:31;;;;;;;;;20.50;17.75;;;;;17.91;47.96;99794.25;4817206;29;104370;-85
2021/11/10 07:20:58;;;;;;;;;15.75;13.25;;;;;17.92;48.33;99795.94;4798786;29;103094;-85
2021/11/10 07:23:25;;;;;;;;;22.75;20.25;;;;;17.90;48.33;99792.56;4820445;28;105308;-84
2021/11/10 07:25:52;;;;;;;;;22.75;19.25;;;;;17.89;48.86;99796.38;4801081;29;102512;-85
2021/11/10 07:28:19;;;;;;;;;21.00;18.75;;;;;17.89;48.06;99797.22;4790468;29;104092;-85
2021/11/10 07:30:47;;;;;;;;;27.25;21.75;;;;;17.87;48.03;99793.03;4781339;29;102292;-85
2021/11/10 07:33:14;;;;;;;;;25.00;20.00;;;;;17.88;48.45;99781.03;4799205;29;103142;-85
2021/11/10 07:35:41;;;;;;;;;20.75;18.00;;;;;17.87;48.34;99776.59;4789362;29;104139;-86
2021/11/10 07:38:08;;;;;;;;;21.50;18.00;;;;;17.88;48.21;99773.63;4816296;29;104076;-86
2021/11/10 07:40:35;;;;;;;;;25.50;21.75;;;;;17.88;48.36;99772.81;4789716;29;102393;-86
2021/11/10 07:43:02;;;;;;;;;22.50;19.25;;;;;17.87;48.34;99776.59;4807001;29;102146;-85
2021/11/10 07:45:32;;;;;;;;;24.75;20.50;;;;;17.87;48.57;99776.59;4783928;29;102536;-86
2021/11/10 07:48:02;;;;;;;;;22.25;20.00;;;;;17.82;48.80;99780.84;4763186;29;104270;-85
2021/11/10 07:50:29;;;;;;;;;22.25;20.25;;;;;17.81;48.79;99770.94;4811364;29;102146;-86
2021/11/10 07:52:56;;;;;;;;;19.75;18.75;;;;;17.80;48.25;99772.00;4795690;29;104136;-85
2021/11/10 07:55:24;;;;;;;;;18.50;18.50;;;;;17.81;48.70;99761.91;4775005;29;102691;-85
2021/11/10 07:57:52;;;;;;;;;19.00;17.50;;;;;17.80;48.67;99766.53;4811473;29;103385;-85
2021/11/10 08:00:36;;;;;;;;;20.00;17.00;;;;;17.80;48.29;99761.06;4819244;28;102566;-85
2021/11/10 08:03:04;;;;;;;;;23.25;18.75;;;;;17.79;48.33;99764.00;4797799;29;102538;-85
2021/11/10 08:05:31;;;;;;;;;17.50;16.00;;;;;17.79;48.65;99764.00;4804068;29;104456;-86
2021/11/10 08:07:59;;;;;;;;;20.75;18.00;;;;;17.81;48.35;99767.38;4811387;28;103996;-85
2021/11/10 08:10:46;;;;;;;;;23.00;18.25;;;;;17.80;48.33;99757.47;4804111;29;102278;-85
2021/11/10 08:13:13;;;;;;;;;19.00;16.25;;;;;17.80;48.28;99757.47;4791437;28;102447;-85
2021/11/10 08:15:41;;;;;;;;;20.00;17.00;;;;;17.81;48.54;99756.44;4798796;29;102735;-85
2021/11/10 08:18:08;;;;;;;;;18.75;17.00;;;;;17.79;48.15;99759.38;4789107;29;103284;-85
2021/11/10 08:20:35;;;;;;;;;20.50;18.00;;;;;17.77;48.09;99766.97;4819289;29;102625;-86
2021/11/10 08:23:02;;;;;;;;;21.50;18.75;;;;;17.78;48.46;99756.88;4792444;29;102565;-85
2021/11/10 08:25:29;;;;;;;;;19.25;17.50;;;;;17.74;48.31;99748.25;4797291;29;102835;-85
2021/11/10 08:27:56;;;;;;;;;19.25;16.50;;;;;17.74;48.69;99748.25;4816077;29;110638;-85
2021/11/10 08:30:23;;;;;;;;;18.50;17.75;;;;;17.74;48.03;99741.97;4819947;29;102693;-85
2021/11/10 08:32:51;;;;;;;;;21.75;16.50;;;;;17.74;47.78;99740.03;4817960;28;102496;-85
2021/11/10 08:35:19;;;;;;;;;17.25;16.50;;;;;17.72;47.97;99742.16;4802159;28;102670;-85
2021/11/10 08:37:47;;;;;;;;;22.25;18.75;;;;;17.73;48.39;99743.84;4814357;29;104082;-86
2021/11/10 08:40:14;;;;;;;;;21.25;19.50;;;;;17.73;48.09;99749.31;4798164;29;102502;-86
2021/11/10 08:42:41;;;;;;;;;19.50;17.00;;;;;17.75;47.75;99743.63;4816285;28;102263;-86
2021/11/10 08:45:14;;;;;;;;;18.00;16.75;;;;;17.75;48.79;99755.41;4814905;29;102292;-85
2021/11/10 08:47:45;;;;;;;;;19.00;16.00;;;;;17.74;47.80;99742.78;4798621;29;104361;-85
2021/11/10 08:50:13;;;;;;;;;18.75;17.25;;;;;17.75;47.77;99732.66;4816526;28;104781;-85
2021/11/10 08:52:40;;;;;;;;;23.00;19.00;;;;;17.74;48.62;99734.56;4818865;28;102567;-81
2021/11/10 08:55:08;;;;;;;;;19.50;17.50;;;;;17.76;48.84;99732.47;4813942;28;103414;-81
2021/11/10 08:57:37;;;;;;;;;21.75;19.25;;;;;17.78;48.12;99729.53;4809909;28;104331;-81
2021/11/10 09:00:06;;;;;;;;;16.25;15.00;;;;;17.77;48.62;99744.25;4814724;29;102623;-85
2021/11/10 09:02:33;;;;;;;;;24.50;19.75;;;;;17.72;48.85;99731.22;4823829;28;102552;-82
2021/11/10 09:05:00;;;;;;;;;18.75;16.75;;;;;17.70;47.78;99719.66;4799540;29;102501;-82
2021/11/10 09:07:27;;;;;;;;;19.50;16.25;;;;;17.73;48.52;99737.53;4821974;29;104834;-81
2021/11/10 09:09:54;;;;;;;;;19.00;15.75;;;;;17.75;48.21;99740.88;4812631;29;102504;-82
2021/11/10 09:12:21;;;;;;;;;20.50;17.50;;;;;17.74;47.95;99729.09;4821972;29;102618;-81
2021/11/10 09:14:49;;;;;;;;;22.25;17.25;;;;;17.74;49.02;99729.09;4810039;29;102696;-81
2021/11/10 09:17:16;;;;;;;;;19.00;17.00;;;;;17.76;48.06;99727.00;4818377;28;104059;-82
2021/11/10 09:19:43;;;;;;;;;15.00;12.25;;;;;17.79;48.25;99725.69;4820200;28;102198;-81
2021/11/10 09:22:10;;;;;;;;;17.75;15.00;;;;;17.81;48.64;99723.59;4822383;29;103439;-81
2021/11/10 09:24:37;;;;;;;;;18.00;17.25;;;;;17.81;48.44;99718.13;4809624;29;102716;-82
2021/11/10 09:27:04;;;;;;;;;16.00;14.75;;;;;17.81;47.94;99718.97;4818459;28;104079;-82
2021/11/10 09:29:32;;;;;;;;;14.50;14.00;;;;;17.81;48.34;99713.50;4822922;29;102202;-81
2021/11/10 09:31:59;;;;;;;;;15.50;12.00;;;;;17.81;48.13;99713.50;4815806;28;102169;-82
2021/11/10 09:34:27;;;;;;;;;19.00;15.50;;;;;17.81;47.85;99702.56;4821371;28;102196;-82
2021/11/10 09:36:54;;;;;;;;;19.25;17.25;;;;;17.79;47.97;99704.66;4807386;29;104080;-82
2021/11/10 09:39:22;;;;;;;;;17.00;16.50;;;;;17.77;48.03;99700.47;4811779;29;102223;-81
2021/11/10 09:41:50;;;;;;;;;15.50;14.00;;;;;17.74;47.93;99704.47;4818945;29;102756;-82
2021/11/10 09:44:17;;;;;;;;;19.75;17.00;;;;;17.75;48.03;99700.69;4804394;29;102558;-85
2021/11/10 09:46:45;;;;;;;;;14.50;14.25;;;;;17.79;47.80;99701.06;4803188;29;103487;-86
2021/11/10 09:49:13;;;;;;;;;19.00;16.25;;;;;17.80;47.87;99710.97;4804494;29;102338;-86
2021/11/10 09:51:40;;;;;;;;;16.50;15.50;;;;;17.81;47.96;99705.28;4802739;28;102368;-85
2021/11/10 09:54:09;;;;;;;;;16.00;13.75;;;;;17.81;48.58;99699.81;4826346;29;102603;-86
2021/11/10 09:56:37;;;;;;;;;14.75;14.75;;;;;17.82;47.69;99696.03;4816996;28;104403;-85
2021/11/10 09:59:04;;;;;;;;;16.00;13.75;;;;;17.81;47.91;99686.13;4819725;28;102699;-85
2021/11/10 10:01:37;;;;;;;;;17.25;15.50;;;;;17.83;48.45;99688.66;4805381;29;102258;-85
2021/11/10 10:04:05;;;;;;;;;14.25;13.25;;;;;17.83;47.77;99684.00;4816982;29;102537;-85
2021/11/10 10:06:32;;;;;;;;;16.25;14.75;;;;;17.82;48.57;99685.09;4813895;29;103807;-85
2021/11/10 10:09:00;;;;;;;;;13.00;11.75;;;;;17.83;48.52;99681.25;4805193;29;102154;-85
2021/11/10 10:11:27;;;;;;;;;15.00;14.00;;;;;17.84;47.74;99663.78;4817747;29;102123;-85
2021/11/10 10:13:55;;;;;;;;;12.50;12.50;;;;;17.81;48.77;99656.03;4813478;28;103836;-85
2021/11/10 10:16:27;;;;;;;;;20.50;14.75;;;;;17.83;48.05;99662.09;4822402;29;104152;-85
2021/11/10 10:19:04;;;;;;;;;17.75;15.25;;;;;17.83;48.06;99656.63;4818654;28;102247;-84
2021/11/10 10:21:33;;;;;;;;;15.00;13.25;;;;;17.84;48.28;99652.84;4804044;29;102804;-85
2021/11/10 10:24:00;;;;;;;;;16.25;15.25;;;;;17.83;48.33;99644.88;4821918;28;102330;-85
2021/11/10 10:26:27;;;;;;;;;17.25;15.75;;;;;17.86;48.21;99652.63;4811171;28;103972;-85
2021/11/10 10:28:56;;;;;;;;;15.25;13.00;;;;;17.86;48.39;99647.16;4797268;28;102400;-85
2021/11/10 10:31:27;;;;;;;;;15.75;14.25;;;;;17.87;48.21;99648.00;4811920;29;102538;-85
2021/11/10 10:33:56;;;;;;;;;15.50;13.75;;;;;17.87;48.40;99634.31;4820572;29;105206;-83
2021/11/10 10:36:25;;;;;;;;;14.75;14.00;;;;;17.88;48.07;99636.81;4792506;29;104146;-85
2021/11/10 10:39:06;;;;;;;;;16.75;14.00;;;;;17.87;47.73;99629.69;4809257;29;102079;-86
2021/11/10 10:41:35;;;;;;;;;12.50;11.50;;;;;17.89;47.81;99632.19;4826597;29;102692;-85
2021/11/10 10:44:10;;;;;;;;;14.00;12.25;;;;;17.88;47.83;99625.06;4811690;29;102329;-85
2021/11/10 10:46:39;;;;;;;;;11.75;10.50;;;;;17.88;47.98;99625.06;4812306;28;104125;-86
2021/11/10 10:49:24;;;;;;;;;19.25;14.75;;;;;17.88;47.96;99619.59;4812747;29;102211;-86
2021/11/10 10:51:55;;;;;;;;;12.00;11.00;;;;;17.88;48.14;99620.41;4824810;29;102412;-85
2021/11/10 10:54:28;;;;;;;;;12.25;11.25;;;;;17.90;48.39;99617.44;4784018;29;102468;-85
2021/11/10 10:57:00;;;;;;;;;15.25;14.00;;;;;17.89;48.29;99615.78;4808713;28;108971;-82
2021/11/10 10:59:28;;;;;;;;;14.00;12.00;;;;;17.89;47.74;99610.28;4821200;29;102386;-81
2021/11/10 11:01:56;;;;;;;;;15.00;12.75;;;;;17.90;48.26;99606.50;4796417;29;102984;-83
2021/11/10 11:04:29;;;;;;;;;13.75;9.75;;;;;17.92;47.97;99612.59;4805942;29;102512;-86
2021/11/10 11:06:56;;;;;;;;;13.75;12.75;;;;;17.92;47.46;99612.59;4812692;29;108945;-84
2021/11/10 11:09:31;;;;;;;;;12.75;12.25;;;;;17.92;47.99;99615.34;4815814;29;102444;-85
2021/11/10 11:15:34;;;;;;;;;13.75;11.75;;;;;17.92;47.99;99599.72;4813680;28;109219;-85
2021/11/10 11:18:01;;;;;;;;;12.25;11.75;;;;;17.90;47.29;99599.13;4799983;29;104338;-85